sensor_id;sensor_type;location;lat;lon;timestamp;P1;durP1;ratioP1;P2;durP2;ratioP2
62584;SDS011;48643;51.670;5.808;2023-06-04T00:02:22;4.35;;;1.90;;
62584;SDS011;48643;51.670;5.808;2023-06-04T00:04:49;9.23;;;2.10;;
62584;SDS011;48643;51.670;5.808;2023-06-04T00:07:17;5.57;;;2.05;;
62584;SDS011;48643;51.670;5.808;2023-06-04T00:09:44;4.45;;;1.80;;
62584;SDS011;48643;51.670;5.808;2023-06-04T00:14:40;5.90;;;1.90;;
62584;SDS011;48643;51.670;5.808;2023-06-04T00:17:08;6.15;;;1.80;;
62584;SDS011;48643;51.670;5.808;2023-06-04T00:19:37;7.05;;;1.90;;
62584;SDS011;48643;51.670;5.808;2023-06-04T00:22:05;5.70;;;1.90;;
62584;SDS011;48643;51.670;5.808;2023-06-04T00:24:32;5.53;;;2.10;;
62584;SDS011;48643;51.670;5.808;2023-06-04T00:27:00;7.00;;;2.10;;
62584;SDS011;48643;51.670;5.808;2023-06-04T00:29:26;6.32;;;2.00;;
62584;SDS011;48643;51.670;5.808;2023-06-04T00:31:53;6.35;;;1.92;;
62584;SDS011;48643;51.670;5.808;2023-06-04T00:34:20;7.35;;;2.00;;
62584;SDS011;48643;51.670;5.808;2023-06-04T00:36:47;4.20;;;1.85;;
62584;SDS011;48643;51.670;5.808;2023-06-04T00:39:14;4.88;;;1.73;;
62584;SDS011;48643;51.670;5.808;2023-06-04T00:41:41;4.10;;;1.77;;
62584;SDS011;48643;51.670;5.808;2023-06-04T00:44:08;4.82;;;1.67;;
62584;SDS011;48643;51.670;5.808;2023-06-04T00:46:35;4.18;;;1.90;;
62584;SDS011;48643;51.670;5.808;2023-06-04T00:49:02;2.72;;;1.70;;
62584;SDS011;48643;51.670;5.808;2023-06-04T00:51:30;4.32;;;1.95;;
62584;SDS011;48643;51.670;5.808;2023-06-04T00:53:58;5.13;;;1.85;;
62584;SDS011;48643;51.670;5.808;2023-06-04T00:56:25;4.63;;;1.80;;
62584;SDS011;48643;51.670;5.808;2023-06-04T00:58:52;3.08;;;1.70;;
62584;SDS011;48643;51.670;5.808;2023-06-04T01:01:24;5.20;;;2.15;;
62584;SDS011;48643;51.670;5.808;2023-06-04T01:03:57;4.97;;;1.90;;
62584;SDS011;48643;51.670;5.808;2023-06-04T01:06:28;3.97;;;1.80;;
62584;SDS011;48643;51.670;5.808;2023-06-04T01:09:01;4.38;;;1.83;;
62584;SDS011;48643;51.670;5.808;2023-06-04T01:11:36;3.05;;;1.58;;
62584;SDS011;48643;51.670;5.808;2023-06-04T01:14:04;4.00;;;2.10;;
62584;SDS011;48643;51.670;5.808;2023-06-04T01:16:46;2.95;;;1.88;;
62584;SDS011;48643;51.670;5.808;2023-06-04T01:22:24;2.22;;;1.50;;
62584;SDS011;48643;51.670;5.808;2023-06-04T01:25:02;4.05;;;2.00;;
62584;SDS011;48643;51.670;5.808;2023-06-04T01:27:30;3.97;;;1.90;;
62584;SDS011;48643;51.670;5.808;2023-06-04T01:29:58;3.40;;;1.80;;
62584;SDS011;48643;51.670;5.808;2023-06-04T01:32:26;3.97;;;1.90;;
62584;SDS011;48643;51.670;5.808;2023-06-04T01:34:54;4.72;;;1.80;;
62584;SDS011;48643;51.670;5.808;2023-06-04T01:37:21;4.65;;;1.60;;
62584;SDS011;48643;51.670;5.808;2023-06-04T01:39:48;4.82;;;1.92;;
62584;SDS011;48643;51.670;5.808;2023-06-04T01:42:15;5.32;;;1.90;;
62584;SDS011;48643;51.670;5.808;2023-06-04T01:44:41;3.72;;;1.73;;
62584;SDS011;48643;51.670;5.808;2023-06-04T01:47:08;4.68;;;1.80;;
62584;SDS011;48643;51.670;5.808;2023-06-04T01:49:35;2.92;;;1.45;;
62584;SDS011;48643;51.670;5.808;2023-06-04T01:52:04;4.07;;;1.60;;
62584;SDS011;48643;51.670;5.808;2023-06-04T01:54:32;4.78;;;1.95;;
62584;SDS011;48643;51.670;5.808;2023-06-04T01:57:00;4.93;;;1.90;;
62584;SDS011;48643;51.670;5.808;2023-06-04T01:59:27;4.18;;;1.65;;
62584;SDS011;48643;51.670;5.808;2023-06-04T02:01:53;3.42;;;1.60;;
62584;SDS011;48643;51.670;5.808;2023-06-04T02:04:20;5.93;;;2.05;;
62584;SDS011;48643;51.670;5.808;2023-06-04T02:06:47;4.78;;;1.88;;
62584;SDS011;48643;51.670;5.808;2023-06-04T02:09:15;2.20;;;1.70;;
62584;SDS011;48643;51.670;5.808;2023-06-04T02:11:42;3.17;;;1.70;;
62584;SDS011;48643;51.670;5.808;2023-06-04T02:14:08;3.55;;;1.65;;
62584;SDS011;48643;51.670;5.808;2023-06-04T02:16:35;2.83;;;1.67;;
62584;SDS011;48643;51.670;5.808;2023-06-04T02:19:04;2.40;;;1.58;;
62584;SDS011;48643;51.670;5.808;2023-06-04T02:21:31;1.90;;;1.70;;
62584;SDS011;48643;51.670;5.808;2023-06-04T02:23:57;3.88;;;1.80;;
62584;SDS011;48643;51.670;5.808;2023-06-04T02:26:24;3.28;;;1.70;;
62584;SDS011;48643;51.670;5.808;2023-06-04T02:28:51;3.42;;;1.75;;
62584;SDS011;48643;51.670;5.808;2023-06-04T02:31:18;2.20;;;1.70;;
62584;SDS011;48643;51.670;5.808;2023-06-04T02:33:45;2.80;;;1.55;;
62584;SDS011;48643;51.670;5.808;2023-06-04T02:36:12;3.08;;;1.35;;
62584;SDS011;48643;51.670;5.808;2023-06-04T02:38:39;4.43;;;1.80;;
62584;SDS011;48643;51.670;5.808;2023-06-04T02:41:06;4.72;;;1.60;;
62584;SDS011;48643;51.670;5.808;2023-06-04T02:43:33;2.47;;;1.70;;
62584;SDS011;48643;51.670;5.808;2023-06-04T02:46:01;3.95;;;1.92;;
62584;SDS011;48643;51.670;5.808;2023-06-04T02:48:28;3.60;;;1.60;;
62584;SDS011;48643;51.670;5.808;2023-06-04T02:50:55;2.55;;;1.70;;
62584;SDS011;48643;51.670;5.808;2023-06-04T02:53:21;3.53;;;1.60;;
62584;SDS011;48643;51.670;5.808;2023-06-04T02:55:49;3.17;;;1.90;;
62584;SDS011;48643;51.670;5.808;2023-06-04T02:58:19;3.70;;;1.70;;
62584;SDS011;48643;51.670;5.808;2023-06-04T03:00:49;4.90;;;1.65;;
62584;SDS011;48643;51.670;5.808;2023-06-04T03:03:18;4.15;;;1.60;;
62584;SDS011;48643;51.670;5.808;2023-06-04T03:05:45;3.53;;;1.52;;
62584;SDS011;48643;51.670;5.808;2023-06-04T03:08:12;3.40;;;1.83;;
62584;SDS011;48643;51.670;5.808;2023-06-04T03:10:39;2.72;;;1.55;;
62584;SDS011;48643;51.670;5.808;2023-06-04T03:13:06;5.05;;;1.90;;
62584;SDS011;48643;51.670;5.808;2023-06-04T03:15:33;5.25;;;1.85;;
62584;SDS011;48643;51.670;5.808;2023-06-04T03:17:59;5.25;;;1.73;;
62584;SDS011;48643;51.670;5.808;2023-06-04T03:20:26;4.40;;;1.90;;
62584;SDS011;48643;51.670;5.808;2023-06-04T03:22:53;5.25;;;1.83;;
62584;SDS011;48643;51.670;5.808;2023-06-04T03:25:20;2.72;;;1.67;;
62584;SDS011;48643;51.670;5.808;2023-06-04T03:27:47;2.92;;;1.70;;
62584;SDS011;48643;51.670;5.808;2023-06-04T03:30:15;3.92;;;1.60;;
62584;SDS011;48643;51.670;5.808;2023-06-04T03:32:52;2.40;;;1.50;;
62584;SDS011;48643;51.670;5.808;2023-06-04T03:35:19;4.28;;;1.70;;
62584;SDS011;48643;51.670;5.808;2023-06-04T03:37:46;3.13;;;1.70;;
62584;SDS011;48643;51.670;5.808;2023-06-04T03:40:13;2.22;;;1.70;;
62584;SDS011;48643;51.670;5.808;2023-06-04T03:42:43;4.68;;;1.70;;
62584;SDS011;48643;51.670;5.808;2023-06-04T03:45:11;2.97;;;1.83;;
62584;SDS011;48643;51.670;5.808;2023-06-04T03:47:38;3.00;;;1.73;;
62584;SDS011;48643;51.670;5.808;2023-06-04T03:50:07;3.40;;;1.77;;
62584;SDS011;48643;51.670;5.808;2023-06-04T03:52:35;4.03;;;1.70;;
62584;SDS011;48643;51.670;5.808;2023-06-04T03:55:02;2.55;;;1.50;;
62584;SDS011;48643;51.670;5.808;2023-06-04T03:57:30;3.13;;;1.80;;
62584;SDS011;48643;51.670;5.808;2023-06-04T04:02:26;1.77;;;1.48;;
62584;SDS011;48643;51.670;5.808;2023-06-04T04:04:54;3.85;;;1.63;;
62584;SDS011;48643;51.670;5.808;2023-06-04T04:07:23;2.92;;;1.70;;
62584;SDS011;48643;51.670;5.808;2023-06-04T04:09:51;1.95;;;1.45;;
62584;SDS011;48643;51.670;5.808;2023-06-04T04:12:19;2.72;;;1.60;;
62584;SDS011;48643;51.670;5.808;2023-06-04T04:14:46;3.80;;;1.70;;
62584;SDS011;48643;51.670;5.808;2023-06-04T04:17:14;4.20;;;1.60;;
62584;SDS011;48643;51.670;5.808;2023-06-04T04:19:41;2.13;;;1.50;;
62584;SDS011;48643;51.670;5.808;2023-06-04T04:22:10;2.50;;;1.48;;
62584;SDS011;48643;51.670;5.808;2023-06-04T04:24:37;5.03;;;1.42;;
62584;SDS011;48643;51.670;5.808;2023-06-04T04:27:05;2.35;;;1.48;;
62584;SDS011;48643;51.670;5.808;2023-06-04T04:29:32;2.58;;;1.40;;
62584;SDS011;48643;51.670;5.808;2023-06-04T04:32:00;3.28;;;1.60;;
62584;SDS011;48643;51.670;5.808;2023-06-04T04:34:38;3.70;;;1.65;;
62584;SDS011;48643;51.670;5.808;2023-06-04T04:37:06;3.20;;;1.60;;
62584;SDS011;48643;51.670;5.808;2023-06-04T04:39:34;3.45;;;1.60;;
62584;SDS011;48643;51.670;5.808;2023-06-04T04:42:03;6.50;;;1.63;;
62584;SDS011;48643;51.670;5.808;2023-06-04T04:44:30;2.80;;;1.52;;
62584;SDS011;48643;51.670;5.808;2023-06-04T04:46:57;3.60;;;1.67;;
62584;SDS011;48643;51.670;5.808;2023-06-04T04:49:23;2.20;;;1.50;;
62584;SDS011;48643;51.670;5.808;2023-06-04T04:51:50;4.85;;;1.65;;
62584;SDS011;48643;51.670;5.808;2023-06-04T04:54:17;5.07;;;1.70;;
62584;SDS011;48643;51.670;5.808;2023-06-04T04:56:44;2.00;;;1.60;;
62584;SDS011;48643;51.670;5.808;2023-06-04T04:59:11;3.97;;;1.60;;
62584;SDS011;48643;51.670;5.808;2023-06-04T05:01:38;2.58;;;1.48;;
62584;SDS011;48643;51.670;5.808;2023-06-04T05:04:05;3.65;;;1.70;;
62584;SDS011;48643;51.670;5.808;2023-06-04T05:06:37;2.85;;;1.48;;
62584;SDS011;48643;51.670;5.808;2023-06-04T05:09:04;1.93;;;1.50;;
62584;SDS011;48643;51.670;5.808;2023-06-04T05:11:31;4.25;;;1.80;;
62584;SDS011;48643;51.670;5.808;2023-06-04T05:13:58;2.65;;;1.50;;
62584;SDS011;48643;51.670;5.808;2023-06-04T05:16:25;3.38;;;1.70;;
62584;SDS011;48643;51.670;5.808;2023-06-04T05:18:54;2.92;;;1.80;;
62584;SDS011;48643;51.670;5.808;2023-06-04T05:21:25;3.13;;;1.60;;
62584;SDS011;48643;51.670;5.808;2023-06-04T05:23:58;3.03;;;1.60;;
62584;SDS011;48643;51.670;5.808;2023-06-04T05:26:30;3.20;;;1.60;;
62584;SDS011;48643;51.670;5.808;2023-06-04T05:29:00;5.90;;;1.65;;
62584;SDS011;48643;51.670;5.808;2023-06-04T05:31:32;2.92;;;1.63;;
62584;SDS011;48643;51.670;5.808;2023-06-04T05:34:05;4.00;;;1.50;;
62584;SDS011;48643;51.670;5.808;2023-06-04T05:36:34;2.92;;;1.75;;
62584;SDS011;48643;51.670;5.808;2023-06-04T05:39:04;2.13;;;1.55;;
62584;SDS011;48643;51.670;5.808;2023-06-04T05:41:38;1.85;;;1.50;;
62584;SDS011;48643;51.670;5.808;2023-06-04T05:44:05;1.52;;;1.38;;
62584;SDS011;48643;51.670;5.808;2023-06-04T05:46:32;2.22;;;1.42;;
62584;SDS011;48643;51.670;5.808;2023-06-04T05:48:59;4.35;;;1.80;;
62584;SDS011;48643;51.670;5.808;2023-06-04T05:51:27;3.78;;;1.60;;
62584;SDS011;48643;51.670;5.808;2023-06-04T05:53:54;2.45;;;1.50;;
62584;SDS011;48643;51.670;5.808;2023-06-04T05:56:21;2.63;;;1.50;;
62584;SDS011;48643;51.670;5.808;2023-06-04T05:58:52;1.85;;;1.40;;
62584;SDS011;48643;51.670;5.808;2023-06-04T06:01:21;6.03;;;1.60;;
62584;SDS011;48643;51.670;5.808;2023-06-04T06:03:49;2.50;;;1.40;;
62584;SDS011;48643;51.670;5.808;2023-06-04T06:06:17;2.72;;;1.52;;
62584;SDS011;48643;51.670;5.808;2023-06-04T06:08:46;3.42;;;1.60;;
62584;SDS011;48643;51.670;5.808;2023-06-04T06:11:14;2.42;;;1.60;;
62584;SDS011;48643;51.670;5.808;2023-06-04T06:13:41;5.50;;;1.70;;
62584;SDS011;48643;51.670;5.808;2023-06-04T06:16:09;2.50;;;1.30;;
62584;SDS011;48643;51.670;5.808;2023-06-04T06:18:37;4.20;;;1.80;;
62584;SDS011;48643;51.670;5.808;2023-06-04T06:21:04;3.58;;;1.48;;
62584;SDS011;48643;51.670;5.808;2023-06-04T06:23:31;2.53;;;1.40;;
62584;SDS011;48643;51.670;5.808;2023-06-04T06:26:00;3.53;;;2.25;;
62584;SDS011;48643;51.670;5.808;2023-06-04T06:28:30;8.85;;;2.55;;
62584;SDS011;48643;51.670;5.808;2023-06-04T06:30:58;5.93;;;2.50;;
62584;SDS011;48643;51.670;5.808;2023-06-04T06:33:25;7.00;;;2.22;;
62584;SDS011;48643;51.670;5.808;2023-06-04T06:35:52;6.63;;;1.98;;
62584;SDS011;48643;51.670;5.808;2023-06-04T06:38:19;5.07;;;1.88;;
62584;SDS011;48643;51.670;5.808;2023-06-04T06:40:46;6.50;;;2.10;;
62584;SDS011;48643;51.670;5.808;2023-06-04T06:43:12;5.47;;;1.70;;
62584;SDS011;48643;51.670;5.808;2023-06-04T06:45:39;4.15;;;2.03;;
62584;SDS011;48643;51.670;5.808;2023-06-04T06:48:06;3.08;;;1.60;;
62584;SDS011;48643;51.670;5.808;2023-06-04T06:50:33;6.95;;;1.58;;
62584;SDS011;48643;51.670;5.808;2023-06-04T06:53:03;7.20;;;1.80;;
62584;SDS011;48643;51.670;5.808;2023-06-04T06:55:30;3.53;;;1.75;;
62584;SDS011;48643;51.670;5.808;2023-06-04T06:57:57;2.65;;;1.58;;
62584;SDS011;48643;51.670;5.808;2023-06-04T07:00:25;3.20;;;1.60;;
62584;SDS011;48643;51.670;5.808;2023-06-04T07:02:53;3.67;;;1.98;;
62584;SDS011;48643;51.670;5.808;2023-06-04T07:05:21;3.15;;;1.60;;
62584;SDS011;48643;51.670;5.808;2023-06-04T07:07:47;2.40;;;1.55;;
62584;SDS011;48643;51.670;5.808;2023-06-04T07:10:14;3.47;;;1.63;;
62584;SDS011;48643;51.670;5.808;2023-06-04T07:12:41;6.03;;;1.70;;
62584;SDS011;48643;51.670;5.808;2023-06-04T07:15:09;2.78;;;1.50;;
62584;SDS011;48643;51.670;5.808;2023-06-04T07:17:36;2.03;;;1.60;;
62584;SDS011;48643;51.670;5.808;2023-06-04T07:20:03;6.38;;;1.70;;
62584;SDS011;48643;51.670;5.808;2023-06-04T07:22:33;4.13;;;1.88;;
62584;SDS011;48643;51.670;5.808;2023-06-04T07:25:00;3.22;;;1.65;;
62584;SDS011;48643;51.670;5.808;2023-06-04T07:27:27;4.00;;;1.75;;
62584;SDS011;48643;51.670;5.808;2023-06-04T07:29:54;3.45;;;1.55;;
62584;SDS011;48643;51.670;5.808;2023-06-04T07:32:21;2.75;;;1.67;;
62584;SDS011;48643;51.670;5.808;2023-06-04T07:34:48;6.45;;;1.52;;
62584;SDS011;48643;51.670;5.808;2023-06-04T07:37:15;2.08;;;1.50;;
62584;SDS011;48643;51.670;5.808;2023-06-04T07:39:41;3.13;;;1.65;;
62584;SDS011;48643;51.670;5.808;2023-06-04T07:42:08;2.00;;;1.50;;
62584;SDS011;48643;51.670;5.808;2023-06-04T07:44:36;4.88;;;2.25;;
62584;SDS011;48643;51.670;5.808;2023-06-04T07:47:04;7.88;;;2.50;;
62584;SDS011;48643;51.670;5.808;2023-06-04T07:49:31;5.13;;;2.50;;
62584;SDS011;48643;51.670;5.808;2023-06-04T07:51:58;9.93;;;2.60;;
62584;SDS011;48643;51.670;5.808;2023-06-04T07:54:26;7.70;;;2.88;;
62584;SDS011;48643;51.670;5.808;2023-06-04T07:56:52;5.82;;;2.60;;
62584;SDS011;48643;51.670;5.808;2023-06-04T07:59:22;5.03;;;2.53;;
62584;SDS011;48643;51.670;5.808;2023-06-04T08:01:50;3.67;;;2.20;;
62584;SDS011;48643;51.670;5.808;2023-06-04T08:04:18;4.63;;;2.50;;
62584;SDS011;48643;51.670;5.808;2023-06-04T08:06:45;7.50;;;2.67;;
62584;SDS011;48643;51.670;5.808;2023-06-04T08:09:12;6.40;;;2.78;;
62584;SDS011;48643;51.670;5.808;2023-06-04T08:11:40;6.18;;;2.33;;
62584;SDS011;48643;51.670;5.808;2023-06-04T08:14:09;7.55;;;2.83;;
62584;SDS011;48643;51.670;5.808;2023-06-04T08:16:39;4.15;;;2.50;;
62584;SDS011;48643;51.670;5.808;2023-06-04T08:19:07;5.55;;;2.45;;
62584;SDS011;48643;51.670;5.808;2023-06-04T08:21:34;17.42;;;2.78;;
62584;SDS011;48643;51.670;5.808;2023-06-04T08:24:01;7.38;;;2.60;;
62584;SDS011;48643;51.670;5.808;2023-06-04T08:26:29;7.82;;;2.40;;
62584;SDS011;48643;51.670;5.808;2023-06-04T08:28:57;5.65;;;2.20;;
62584;SDS011;48643;51.670;5.808;2023-06-04T08:31:24;5.55;;;2.40;;
62584;SDS011;48643;51.670;5.808;2023-06-04T08:33:51;7.32;;;2.20;;
62584;SDS011;48643;51.670;5.808;2023-06-04T08:36:17;5.90;;;2.58;;
62584;SDS011;48643;51.670;5.808;2023-06-04T08:38:44;4.20;;;2.25;;
62584;SDS011;48643;51.670;5.808;2023-06-04T08:41:20;5.90;;;2.20;;
62584;SDS011;48643;51.670;5.808;2023-06-04T08:43:57;6.72;;;2.40;;
62584;SDS011;48643;51.670;5.808;2023-06-04T08:46:31;5.72;;;2.33;;
62584;SDS011;48643;51.670;5.808;2023-06-04T08:48:59;4.97;;;2.45;;
62584;SDS011;48643;51.670;5.808;2023-06-04T08:51:31;6.60;;;2.10;;
62584;SDS011;48643;51.670;5.808;2023-06-04T08:54:00;7.32;;;2.20;;
62584;SDS011;48643;51.670;5.808;2023-06-04T08:56:26;10.95;;;2.30;;
62584;SDS011;48643;51.670;5.808;2023-06-04T08:59:03;7.78;;;2.10;;
62584;SDS011;48643;51.670;5.808;2023-06-04T09:01:33;8.10;;;2.50;;
62584;SDS011;48643;51.670;5.808;2023-06-04T09:04:01;7.05;;;2.30;;
62584;SDS011;48643;51.670;5.808;2023-06-04T09:06:30;6.28;;;2.22;;
62584;SDS011;48643;51.670;5.808;2023-06-04T09:08:59;5.78;;;2.53;;
62584;SDS011;48643;51.670;5.808;2023-06-04T09:11:33;6.82;;;2.70;;
62584;SDS011;48643;51.670;5.808;2023-06-04T09:14:03;4.00;;;2.10;;
62584;SDS011;48643;51.670;5.808;2023-06-04T09:16:47;5.80;;;2.10;;
62584;SDS011;48643;51.670;5.808;2023-06-04T09:19:18;5.47;;;2.28;;
62584;SDS011;48643;51.670;5.808;2023-06-04T09:22:07;2.92;;;2.00;;
62584;SDS011;48643;51.670;5.808;2023-06-04T09:24:39;3.78;;;2.15;;
62584;SDS011;48643;51.670;5.808;2023-06-04T09:27:16;6.53;;;2.05;;
62584;SDS011;48643;51.670;5.808;2023-06-04T09:29:50;7.33;;;1.80;;
62584;SDS011;48643;51.670;5.808;2023-06-04T09:32:24;2.90;;;1.80;;
62584;SDS011;48643;51.670;5.808;2023-06-04T09:34:53;8.13;;;2.00;;
62584;SDS011;48643;51.670;5.808;2023-06-04T09:37:22;3.42;;;1.90;;
62584;SDS011;48643;51.670;5.808;2023-06-04T09:39:55;13.95;;;2.00;;
62584;SDS011;48643;51.670;5.808;2023-06-04T09:42:22;3.53;;;1.92;;
62584;SDS011;48643;51.670;5.808;2023-06-04T09:44:50;4.45;;;2.00;;
62584;SDS011;48643;51.670;5.808;2023-06-04T09:47:17;6.90;;;2.00;;
62584;SDS011;48643;51.670;5.808;2023-06-04T09:49:44;3.10;;;1.95;;
62584;SDS011;48643;51.670;5.808;2023-06-04T09:52:12;6.13;;;2.10;;
62584;SDS011;48643;51.670;5.808;2023-06-04T09:54:40;4.70;;;1.77;;
62584;SDS011;48643;51.670;5.808;2023-06-04T09:57:17;6.57;;;1.92;;
62584;SDS011;48643;51.670;5.808;2023-06-04T09:59:46;7.38;;;1.95;;
62584;SDS011;48643;51.670;5.808;2023-06-04T10:02:19;4.43;;;1.98;;
62584;SDS011;48643;51.670;5.808;2023-06-04T10:04:56;2.65;;;1.70;;
62584;SDS011;48643;51.670;5.808;2023-06-04T10:07:23;5.70;;;1.92;;
62584;SDS011;48643;51.670;5.808;2023-06-04T10:09:51;7.10;;;1.90;;
62584;SDS011;48643;51.670;5.808;2023-06-04T10:12:22;3.38;;;2.00;;
62584;SDS011;48643;51.670;5.808;2023-06-04T10:14:52;5.43;;;1.90;;
62584;SDS011;48643;51.670;5.808;2023-06-04T10:17:24;4.68;;;1.70;;
62584;SDS011;48643;51.670;5.808;2023-06-04T10:19:54;4.22;;;1.80;;
62584;SDS011;48643;51.670;5.808;2023-06-04T10:24:50;3.05;;;1.70;;
62584;SDS011;48643;51.670;5.808;2023-06-04T10:27:17;5.28;;;1.85;;
62584;SDS011;48643;51.670;5.808;2023-06-04T10:32:13;5.32;;;1.63;;
62584;SDS011;48643;51.670;5.808;2023-06-04T10:34:40;6.68;;;1.80;;
62584;SDS011;48643;51.670;5.808;2023-06-04T10:37:06;4.15;;;1.88;;
62584;SDS011;48643;51.670;5.808;2023-06-04T10:39:49;6.32;;;2.05;;
62584;SDS011;48643;51.670;5.808;2023-06-04T10:42:21;2.83;;;1.65;;
62584;SDS011;48643;51.670;5.808;2023-06-04T10:44:49;3.83;;;1.80;;
62584;SDS011;48643;51.670;5.808;2023-06-04T10:47:24;4.65;;;1.77;;
62584;SDS011;48643;51.670;5.808;2023-06-04T10:49:52;3.90;;;1.88;;
62584;SDS011;48643;51.670;5.808;2023-06-04T10:52:21;3.10;;;1.80;;
62584;SDS011;48643;51.670;5.808;2023-06-04T10:54:48;5.78;;;1.63;;
62584;SDS011;48643;51.670;5.808;2023-06-04T10:57:16;4.20;;;1.63;;
62584;SDS011;48643;51.670;5.808;2023-06-04T10:59:53;2.05;;;1.63;;
62584;SDS011;48643;51.670;5.808;2023-06-04T11:02:23;5.13;;;2.05;;
62584;SDS011;48643;51.670;5.808;2023-06-04T11:05:04;7.70;;;1.90;;
62584;SDS011;48643;51.670;5.808;2023-06-04T11:07:42;2.63;;;1.70;;
62584;SDS011;48643;51.670;5.808;2023-06-04T11:10:10;7.70;;;1.80;;
62584;SDS011;48643;51.670;5.808;2023-06-04T11:12:42;3.65;;;1.80;;
62584;SDS011;48643;51.670;5.808;2023-06-04T11:15:13;8.07;;;1.95;;
62584;SDS011;48643;51.670;5.808;2023-06-04T11:17:53;3.10;;;1.70;;
62584;SDS011;48643;51.670;5.808;2023-06-04T11:20:21;6.43;;;2.03;;
62584;SDS011;48643;51.670;5.808;2023-06-04T11:25:25;4.90;;;1.75;;
62584;SDS011;48643;51.670;5.808;2023-06-04T11:27:54;6.65;;;1.83;;
62584;SDS011;48643;51.670;5.808;2023-06-04T11:30:24;2.60;;;1.70;;
62584;SDS011;48643;51.670;5.808;2023-06-04T11:32:59;4.57;;;1.70;;
62584;SDS011;48643;51.670;5.808;2023-06-04T11:35:28;4.13;;;1.90;;
62584;SDS011;48643;51.670;5.808;2023-06-04T11:37:55;3.65;;;1.90;;
62584;SDS011;48643;51.670;5.808;2023-06-04T11:40:23;2.95;;;1.75;;
62584;SDS011;48643;51.670;5.808;2023-06-04T11:42:52;5.30;;;1.70;;
62584;SDS011;48643;51.670;5.808;2023-06-04T11:45:20;6.53;;;1.92;;
62584;SDS011;48643;51.670;5.808;2023-06-04T11:47:50;7.25;;;2.00;;
62584;SDS011;48643;51.670;5.808;2023-06-04T11:50:19;3.50;;;1.95;;
62584;SDS011;48643;51.670;5.808;2023-06-04T11:52:47;10.95;;;1.85;;
62584;SDS011;48643;51.670;5.808;2023-06-04T11:55:14;5.60;;;1.92;;
62584;SDS011;48643;51.670;5.808;2023-06-04T11:57:43;3.90;;;1.80;;
62584;SDS011;48643;51.670;5.808;2023-06-04T12:00:10;3.58;;;1.80;;
62584;SDS011;48643;51.670;5.808;2023-06-04T12:02:38;6.07;;;2.00;;
62584;SDS011;48643;51.670;5.808;2023-06-04T12:05:14;4.60;;;2.10;;
62584;SDS011;48643;51.670;5.808;2023-06-04T12:07:42;4.53;;;1.80;;
62584;SDS011;48643;51.670;5.808;2023-06-04T12:10:09;5.72;;;1.80;;
62584;SDS011;48643;51.670;5.808;2023-06-04T12:12:38;7.70;;;2.22;;
62584;SDS011;48643;51.670;5.808;2023-06-04T12:15:07;7.13;;;1.90;;
62584;SDS011;48643;51.670;5.808;2023-06-04T12:17:36;3.03;;;1.90;;
62584;SDS011;48643;51.670;5.808;2023-06-04T12:20:04;7.32;;;1.92;;
62584;SDS011;48643;51.670;5.808;2023-06-04T12:22:32;6.57;;;2.00;;
62584;SDS011;48643;51.670;5.808;2023-06-04T12:24:59;5.93;;;1.92;;
62584;SDS011;48643;51.670;5.808;2023-06-04T12:27:29;2.95;;;1.80;;
62584;SDS011;48643;51.670;5.808;2023-06-04T12:29:56;5.15;;;2.00;;
62584;SDS011;48643;51.670;5.808;2023-06-04T12:32:24;5.13;;;1.92;;
62584;SDS011;48643;51.670;5.808;2023-06-04T12:34:51;3.88;;;1.80;;
62584;SDS011;48643;51.670;5.808;2023-06-04T12:37:19;4.25;;;1.88;;
62584;SDS011;48643;51.670;5.808;2023-06-04T12:39:51;2.92;;;1.73;;
62584;SDS011;48643;51.670;5.808;2023-06-04T12:42:18;4.30;;;2.00;;
62584;SDS011;48643;51.670;5.808;2023-06-04T12:44:46;3.63;;;1.70;;
62584;SDS011;48643;51.670;5.808;2023-06-04T12:47:13;6.82;;;1.70;;
62584;SDS011;48643;51.670;5.808;2023-06-04T12:52:08;5.88;;;1.75;;
62584;SDS011;48643;51.670;5.808;2023-06-04T12:54:35;7.03;;;1.90;;
62584;SDS011;48643;51.670;5.808;2023-06-04T12:57:02;5.65;;;2.05;;
62584;SDS011;48643;51.670;5.808;2023-06-04T12:59:29;3.80;;;1.77;;
62584;SDS011;48643;51.670;5.808;2023-06-04T13:01:56;5.03;;;1.90;;
62584;SDS011;48643;51.670;5.808;2023-06-04T13:04:23;3.63;;;1.83;;
62584;SDS011;48643;51.670;5.808;2023-06-04T13:06:50;4.55;;;1.90;;
62584;SDS011;48643;51.670;5.808;2023-06-04T13:09:25;3.00;;;1.90;;
62584;SDS011;48643;51.670;5.808;2023-06-04T13:11:54;5.88;;;2.17;;
62584;SDS011;48643;51.670;5.808;2023-06-04T13:14:21;3.40;;;1.92;;
62584;SDS011;48643;51.670;5.808;2023-06-04T13:16:48;4.68;;;2.00;;
62584;SDS011;48643;51.670;5.808;2023-06-04T13:19:15;7.85;;;2.03;;
62584;SDS011;48643;51.670;5.808;2023-06-04T13:21:42;12.98;;;2.28;;
62584;SDS011;48643;51.670;5.808;2023-06-04T13:24:09;9.75;;;2.45;;
62584;SDS011;48643;51.670;5.808;2023-06-04T13:26:37;4.20;;;2.10;;
62584;SDS011;48643;51.670;5.808;2023-06-04T13:29:05;14.95;;;2.25;;
62584;SDS011;48643;51.670;5.808;2023-06-04T13:31:32;10.25;;;2.25;;
62584;SDS011;48643;51.670;5.808;2023-06-04T13:33:59;7.53;;;1.70;;
62584;SDS011;48643;51.670;5.808;2023-06-04T13:36:40;14.43;;;2.17;;
62584;SDS011;48643;51.670;5.808;2023-06-04T13:39:07;3.38;;;1.77;;
62584;SDS011;48643;51.670;5.808;2023-06-04T13:41:33;6.80;;;2.20;;
62584;SDS011;48643;51.670;5.808;2023-06-04T13:44:00;5.55;;;2.00;;
62584;SDS011;48643;51.670;5.808;2023-06-04T13:46:27;8.82;;;1.85;;
62584;SDS011;48643;51.670;5.808;2023-06-04T13:48:54;5.32;;;2.10;;
62584;SDS011;48643;51.670;5.808;2023-06-04T13:51:21;2.95;;;1.80;;
62584;SDS011;48643;51.670;5.808;2023-06-04T13:53:48;8.75;;;2.15;;
62584;SDS011;48643;51.670;5.808;2023-06-04T13:56:18;3.50;;;2.20;;
62584;SDS011;48643;51.670;5.808;2023-06-04T13:58:45;6.47;;;1.90;;
62584;SDS011;48643;51.670;5.808;2023-06-04T14:01:11;4.88;;;2.13;;
62584;SDS011;48643;51.670;5.808;2023-06-04T14:03:38;3.78;;;2.10;;
62584;SDS011;48643;51.670;5.808;2023-06-04T14:06:06;4.00;;;2.10;;
62584;SDS011;48643;51.670;5.808;2023-06-04T14:08:33;5.03;;;2.30;;
62584;SDS011;48643;51.670;5.808;2023-06-04T14:11:00;5.88;;;2.20;;
62584;SDS011;48643;51.670;5.808;2023-06-04T14:13:26;3.53;;;2.03;;
62584;SDS011;48643;51.670;5.808;2023-06-04T14:15:53;4.80;;;2.08;;
62584;SDS011;48643;51.670;5.808;2023-06-04T14:18:20;6.55;;;2.00;;
62584;SDS011;48643;51.670;5.808;2023-06-04T14:20:47;15.73;;;2.50;;
62584;SDS011;48643;51.670;5.808;2023-06-04T14:23:14;7.90;;;2.33;;
62584;SDS011;48643;51.670;5.808;2023-06-04T14:25:42;3.85;;;2.20;;
62584;SDS011;48643;51.670;5.808;2023-06-04T14:28:09;8.68;;;2.20;;
62584;SDS011;48643;51.670;5.808;2023-06-04T14:30:36;5.13;;;2.30;;
62584;SDS011;48643;51.670;5.808;2023-06-04T14:33:03;7.00;;;2.50;;
62584;SDS011;48643;51.670;5.808;2023-06-04T14:35:30;6.07;;;2.13;;
62584;SDS011;48643;51.670;5.808;2023-06-04T14:37:57;7.57;;;2.33;;
62584;SDS011;48643;51.670;5.808;2023-06-04T14:40:23;7.53;;;2.20;;
62584;SDS011;48643;51.670;5.808;2023-06-04T14:42:50;6.53;;;2.30;;
62584;SDS011;48643;51.670;5.808;2023-06-04T14:45:17;6.25;;;2.20;;
62584;SDS011;48643;51.670;5.808;2023-06-04T14:47:44;6.18;;;2.33;;
62584;SDS011;48643;51.670;5.808;2023-06-04T14:50:12;5.57;;;2.60;;
62584;SDS011;48643;51.670;5.808;2023-06-04T14:52:38;6.75;;;2.47;;
62584;SDS011;48643;51.670;5.808;2023-06-04T14:55:05;5.32;;;2.28;;
62584;SDS011;48643;51.670;5.808;2023-06-04T14:57:32;11.52;;;3.17;;
62584;SDS011;48643;51.670;5.808;2023-06-04T14:59:59;13.45;;;3.38;;
62584;SDS011;48643;51.670;5.808;2023-06-04T15:02:26;17.30;;;4.90;;
62584;SDS011;48643;51.670;5.808;2023-06-04T15:04:55;13.60;;;4.75;;
62584;SDS011;48643;51.670;5.808;2023-06-04T15:07:22;14.02;;;4.10;;
62584;SDS011;48643;51.670;5.808;2023-06-04T15:09:49;9.68;;;3.40;;
62584;SDS011;48643;51.670;5.808;2023-06-04T15:12:16;13.23;;;3.60;;
62584;SDS011;48643;51.670;5.808;2023-06-04T15:14:44;6.18;;;2.70;;